createdAt,value
2019-03-27T00:02:18.707Z,38.40
2019-03-27T00:04:50.508Z,38.50
2019-03-27T00:07:22.185Z,38.90
2019-03-27T00:09:54.346Z,38.90
2019-03-27T00:12:25.673Z,38.70
2019-03-27T00:14:57.350Z,38.80
2019-03-27T00:17:30.231Z,38.70
2019-03-27T00:20:02.031Z,38.80
2019-03-27T00:22:33.837Z,39.00
2019-03-27T00:25:05.277Z,39.60
2019-03-27T00:27:37.075Z,39.70
2019-03-27T00:30:10.077Z,40.80
2019-03-27T00:32:41.281Z,40.50
2019-03-27T00:35:17.761Z,40.80
2019-03-27T00:37:49.443Z,41.20
2019-03-27T00:40:21.124Z,41.50
2019-03-27T00:42:52.445Z,41.60
2019-03-27T00:45:26.741Z,41.80
2019-03-27T00:47:58.086Z,41.80
2019-03-27T00:50:30.727Z,41.90
2019-03-27T00:53:02.418Z,42.50
2019-03-27T00:55:36.132Z,42.50
2019-03-27T00:58:08.051Z,42.60
2019-03-27T01:01:07.334Z,42.60
2019-03-27T01:03:38.894Z,42.40
2019-03-27T01:06:11.895Z,42.60
2019-03-27T01:08:43.579Z,42.80
2019-03-27T01:11:14.779Z,43.00
2019-03-27T01:13:46.466Z,43.20
2019-03-27T01:16:17.899Z,43.30
2019-03-27T01:18:49.950Z,43.40
2019-03-27T01:21:21.503Z,43.30
2019-03-27T01:23:53.425Z,43.80
2019-03-27T01:26:25.345Z,43.20
2019-03-27T01:28:56.785Z,43.30
2019-03-27T01:31:28.351Z,43.60
2019-03-27T01:34:00.152Z,43.70
2019-03-27T01:36:32.191Z,43.90
2019-03-27T01:39:04.353Z,43.90
2019-03-27T01:41:35.913Z,43.90
2019-03-27T01:44:08.437Z,44.10
2019-03-27T01:46:40.715Z,44.50
2019-03-27T01:49:12.035Z,44.40
2019-03-27T01:51:44.077Z,44.30
2019-03-27T01:54:15.519Z,44.30
2019-03-27T01:56:47.319Z,44.40
2019-03-27T01:59:19.003Z,44.50
2019-03-27T02:01:50.803Z,44.60
2019-03-27T02:04:23.205Z,44.60
2019-03-27T02:06:54.887Z,44.90
2019-03-27T02:09:26.328Z,45.20
2019-03-27T02:11:58.127Z,45.10
2019-03-27T02:14:30.784Z,45.30
2019-03-27T02:17:02.689Z,45.30
2019-03-27T02:19:35.212Z,45.50
2019-03-27T02:22:08.105Z,45.60
2019-03-27T02:24:41.237Z,45.50
2019-03-27T02:27:12.535Z,45.70
2019-03-27T02:29:44.215Z,45.70
2019-03-27T02:32:15.537Z,45.70
2019-03-27T02:34:47.221Z,45.80
2019-03-27T02:37:18.784Z,45.90
2019-03-27T02:39:51.662Z,46.30
2019-03-27T02:42:24.904Z,46.40
2019-03-27T02:44:56.346Z,46.40
2019-03-27T02:47:28.271Z,46.50
2019-03-27T02:50:00.107Z,46.90
2019-03-27T02:52:31.629Z,46.70
2019-03-27T02:55:03.078Z,46.90
2019-03-27T02:57:34.511Z,46.90
2019-03-27T03:00:08.838Z,47.10
2019-03-27T03:02:40.752Z,47.40
2019-03-27T03:05:19.511Z,47.50
2019-03-27T03:07:50.596Z,47.50
2019-03-27T03:10:22.760Z,47.60
2019-03-27T03:12:54.326Z,47.70
2019-03-27T03:15:26.483Z,47.60
2019-03-27T03:17:58.161Z,47.90
2019-03-27T03:20:29.602Z,48.00
2019-03-27T03:23:00.923Z,48.00
2019-03-27T03:25:32.364Z,48.10
2019-03-27T03:28:03.928Z,48.20
2019-03-27T03:30:35.851Z,48.10
2019-03-27T03:33:07.664Z,48.00
2019-03-27T03:35:39.452Z,48.10
2019-03-27T03:38:11.135Z,48.60
2019-03-27T03:40:42.347Z,48.30
2019-03-27T03:43:13.775Z,48.30
2019-03-27T03:45:45.696Z,48.50
2019-03-27T03:48:17.380Z,48.60
2019-03-27T03:50:48.580Z,48.70
2019-03-27T03:53:20.140Z,48.80
2019-03-27T03:55:53.023Z,49.00
2019-03-27T03:58:26.623Z,48.80
2019-03-27T04:00:59.865Z,48.90
2019-03-27T04:03:33.468Z,49.10
2019-03-27T04:06:05.145Z,49.00
2019-03-27T04:08:36.951Z,49.90
2019-03-27T04:11:08.277Z,49.10
2019-03-27T04:13:39.708Z,49.00
2019-03-27T04:16:11.630Z,49.40
2019-03-27T04:18:43.074Z,49.60
2019-03-27T04:21:14.556Z,49.70
2019-03-27T04:23:45.834Z,49.70
2019-03-27T04:26:17.281Z,49.30
2019-03-27T04:28:48.598Z,49.30
2019-03-27T04:31:20.282Z,49.40
2019-03-27T04:33:52.079Z,50.70
2019-03-27T04:36:23.640Z,50.20
2019-03-27T04:38:55.922Z,50.30
2019-03-27T04:41:27.363Z,50.40
2019-03-27T04:43:59.165Z,50.60
2019-03-27T04:46:30.965Z,50.40
2019-03-27T04:49:07.357Z,50.40
2019-03-27T04:51:36.013Z,50.30
2019-03-27T04:54:07.448Z,50.00
2019-03-27T04:56:38.772Z,49.90
2019-03-27T04:59:10.577Z,50.20
2019-03-27T05:01:42.253Z,50.00
2019-03-27T05:04:14.176Z,50.20
2019-03-27T05:06:45.734Z,50.30
2019-03-27T05:09:17.788Z,50.00
2019-03-27T05:11:49.938Z,49.90
2019-03-27T05:14:21.620Z,50.70
2019-03-27T05:16:53.660Z,50.70
2019-03-27T05:19:25.100Z,51.00
2019-03-27T05:21:56.544Z,50.90
2019-03-27T05:24:27.983Z,50.70
2019-03-27T05:26:59.426Z,50.60
2019-03-27T05:29:30.870Z,50.80
2019-03-27T05:32:02.432Z,50.90
2019-03-27T05:34:34.230Z,50.90
2019-03-27T05:37:05.671Z,50.70
2019-03-27T05:39:36.991Z,50.90
2019-03-27T05:42:08.315Z,50.90
2019-03-27T05:44:39.996Z,50.80
2019-03-27T05:47:11.676Z,51.10
2019-03-27T05:49:43.600Z,51.10
2019-03-27T05:52:15.519Z,51.80
2019-03-27T05:54:47.199Z,51.20
2019-03-27T05:57:18.998Z,51.30
2019-03-27T05:59:50.565Z,51.60
2019-03-27T06:02:22.004Z,51.80
2019-03-27T06:04:54.283Z,51.70
2019-03-27T06:07:28.007Z,51.60
2019-03-27T06:09:59.694Z,51.60
2019-03-27T06:12:31.489Z,51.60
2019-03-27T06:15:03.183Z,51.70
2019-03-27T06:17:34.851Z,51.90
2019-03-27T06:20:11.937Z,52.00
2019-03-27T06:22:44.455Z,51.90
2019-03-27T06:25:16.135Z,51.90
2019-03-27T06:27:47.779Z,51.90
2019-03-27T06:30:19.377Z,51.90
2019-03-27T06:32:50.701Z,51.50
2019-03-27T06:35:23.216Z,51.80
2019-03-27T06:37:55.261Z,51.90
2019-03-27T06:40:26.703Z,51.80
2019-03-27T06:42:58.743Z,52.50
2019-03-27T06:45:30.064Z,52.20
2019-03-27T06:48:02.468Z,52.30
2019-03-27T06:50:33.910Z,52.40
2019-03-27T06:53:05.470Z,52.60
2019-03-27T06:55:36.791Z,52.50
2019-03-27T06:58:08.114Z,53.00
2019-03-27T07:00:40.032Z,52.60
2019-03-27T07:03:11.955Z,52.40
2019-03-27T07:05:43.635Z,52.60
2019-03-27T07:08:15.077Z,52.60
2019-03-27T07:10:47.477Z,52.90
2019-03-27T07:13:19.519Z,53.10
2019-03-27T07:15:52.399Z,53.20
2019-03-27T07:18:24.085Z,53.00
2019-03-27T07:20:56.841Z,52.80
2019-03-27T07:23:28.170Z,52.80
2019-03-27T07:26:00.085Z,53.10
2019-03-27T07:28:31.526Z,52.60
2019-03-27T07:31:03.807Z,52.80
2019-03-27T07:33:35.408Z,52.70
2019-03-27T07:36:07.411Z,52.90
2019-03-27T07:38:39.089Z,53.10
2019-03-27T07:41:10.651Z,53.60
2019-03-27T07:43:42.576Z,53.60
2019-03-27T07:46:14.378Z,53.40
2019-03-27T07:48:53.972Z,53.50
2019-03-27T07:51:19.056Z,53.10
2019-03-27T07:53:51.459Z,53.20
2019-03-27T07:56:23.145Z,53.50
2019-03-27T07:58:54.342Z,53.20
2019-03-27T08:01:25.783Z,52.90
2019-03-27T08:03:57.231Z,53.10
2019-03-27T08:06:29.026Z,53.40
2019-03-27T08:09:01.187Z,53.30
2019-03-27T08:11:34.520Z,53.30
2019-03-27T08:14:06.470Z,53.10
2019-03-27T08:16:37.910Z,52.90
2019-03-27T08:19:09.350Z,52.80
2019-03-27T08:21:41.633Z,53.10
2019-03-27T08:24:14.276Z,53.00
2019-03-27T08:26:46.078Z,53.40
2019-03-27T08:29:18.116Z,54.00
2019-03-27T08:31:49.318Z,53.90
2019-03-27T08:34:21.358Z,53.80
2019-03-27T08:36:52.802Z,53.60
2019-03-27T08:39:24.842Z,53.60
2019-03-27T08:41:56.046Z,53.80
2019-03-27T08:44:29.404Z,53.50
2019-03-27T08:47:00.850Z,53.70
2019-03-27T08:49:32.740Z,53.60
2019-03-27T08:52:04.330Z,53.90
2019-03-27T08:54:35.888Z,53.80
2019-03-27T08:57:07.332Z,53.80
2019-03-27T08:59:39.490Z,54.00
2019-03-27T09:02:11.052Z,54.70
2019-03-27T09:04:42.854Z,55.40
2019-03-27T09:07:14.414Z,54.50
2019-03-27T09:09:45.743Z,54.50
2019-03-27T09:12:17.178Z,54.30
2019-03-27T09:14:49.218Z,54.20
2019-03-27T09:17:20.902Z,55.20
2019-03-27T09:19:52.223Z,55.00
2019-03-27T09:22:25.341Z,55.00
2019-03-27T09:24:57.144Z,55.20
2019-03-27T09:27:28.710Z,55.00
2019-03-27T09:30:00.747Z,54.90
2019-03-27T09:32:32.186Z,53.70
2019-03-27T09:35:05.197Z,54.20
2019-03-27T09:37:36.630Z,54.20
2019-03-27T09:40:09.892Z,54.40
2019-03-27T09:42:41.553Z,54.50
2019-03-27T09:45:13.714Z,54.60
2019-03-27T09:47:45.514Z,53.80
2019-03-27T09:50:20.553Z,53.60
2019-03-27T09:52:53.798Z,53.30
2019-03-27T09:55:25.961Z,53.90
2019-03-27T09:57:59.080Z,54.30
2019-03-27T10:00:59.562Z,54.20
2019-03-27T10:03:31.367Z,53.90
2019-03-27T10:06:03.167Z,53.70
2019-03-27T10:08:35.086Z,53.00
2019-03-27T10:11:06.529Z,53.30
2019-03-27T10:13:37.966Z,53.00
2019-03-27T10:16:11.089Z,53.10
2019-03-27T10:18:47.302Z,53.40
2019-03-27T10:21:18.299Z,53.10
2019-03-27T10:23:51.174Z,52.80
2019-03-27T10:26:22.856Z,53.20
2019-03-27T10:28:55.377Z,53.40
2019-03-27T10:31:26.576Z,54.00
2019-03-27T10:33:58.736Z,53.70
2019-03-27T10:36:30.179Z,53.70
2019-03-27T10:39:01.750Z,53.00
2019-03-27T10:41:34.741Z,52.80
2019-03-27T10:44:07.142Z,52.80
2019-03-27T10:46:38.702Z,53.10
2019-03-27T10:49:10.625Z,52.90
2019-03-27T10:51:45.913Z,52.80
2019-03-27T10:54:18.791Z,52.80
2019-03-27T10:56:49.991Z,52.70
2019-03-27T10:59:22.152Z,51.30
2019-03-27T11:01:55.279Z,51.50
2019-03-27T11:04:27.553Z,51.30
2019-03-27T11:06:59.475Z,51.00
2019-03-27T11:09:31.812Z,51.70
2019-03-27T11:12:03.556Z,52.00
2019-03-27T11:14:38.169Z,52.30
2019-03-27T11:17:08.961Z,52.30
2019-03-27T11:19:40.883Z,52.30
2019-03-27T11:22:12.210Z,52.00
2019-03-27T11:24:44.242Z,51.30
2019-03-27T11:27:15.804Z,52.00
2019-03-27T11:29:47.125Z,52.10
2019-03-27T11:32:18.819Z,51.80
2019-03-27T11:34:50.250Z,51.10
2019-03-27T11:37:21.932Z,50.70
2019-03-27T11:39:53.498Z,50.40
2019-03-27T11:42:25.292Z,50.20
2019-03-27T11:44:57.093Z,50.80
2019-03-27T11:47:28.778Z,50.70
2019-03-27T11:50:00.357Z,50.00
2019-03-27T11:52:31.657Z,50.40
2019-03-27T11:55:03.459Z,50.20
2019-03-27T11:57:35.379Z,50.10
2019-03-27T12:00:08.023Z,49.80
2019-03-27T12:02:40.063Z,49.80
2019-03-27T12:05:15.946Z,50.20
2019-03-27T12:07:47.629Z,50.40
2019-03-27T12:10:19.305Z,50.40
2019-03-27T12:12:51.225Z,49.90
2019-03-27T12:15:42.350Z,50.20
2019-03-27T12:18:16.674Z,49.80
2019-03-27T12:20:58.943Z,50.70
2019-03-27T12:23:22.671Z,50.80
2019-03-27T12:25:55.325Z,51.30
2019-03-27T12:28:26.633Z,51.10
2019-03-27T12:30:58.333Z,50.80
2019-03-27T12:33:29.997Z,51.00
2019-03-27T12:36:01.799Z,50.10
2019-03-27T12:38:33.001Z,49.60
2019-03-27T12:41:05.041Z,49.60
2019-03-27T12:43:36.970Z,49.60
2019-03-27T12:46:09.484Z,49.70
2019-03-27T12:48:41.405Z,49.50
2019-03-27T12:51:13.513Z,49.80
2019-03-27T12:53:45.128Z,50.00
2019-03-27T12:56:16.567Z,49.80
2019-03-27T12:58:48.136Z,50.30
2019-03-27T13:01:20.412Z,50.40
2019-03-27T13:03:51.854Z,50.50
2019-03-27T13:06:23.658Z,50.80
2019-03-27T13:08:55.215Z,49.50
2019-03-27T13:11:26.902Z,49.70
2019-03-27T13:13:58.458Z,49.30
2019-03-27T13:16:29.777Z,49.80
2019-03-27T13:19:01.349Z,49.50
2019-03-27T13:21:34.590Z,48.90
2019-03-27T13:24:06.264Z,48.70
2019-03-27T13:26:38.543Z,47.90
2019-03-27T13:29:10.225Z,48.40
2019-03-27T13:31:41.669Z,49.10
2019-03-27T13:34:13.232Z,48.80
2019-03-27T13:36:49.162Z,48.70
2019-03-27T13:39:21.390Z,48.50
2019-03-27T13:41:53.673Z,47.90
2019-03-27T13:44:36.444Z,47.00
2019-03-27T13:46:58.702Z,46.30
2019-03-27T13:49:30.876Z,46.60
2019-03-27T13:52:02.676Z,47.60
2019-03-27T13:54:34.356Z,48.00
2019-03-27T13:57:05.682Z,46.90
2019-03-27T13:59:37.483Z,46.40
2019-03-27T14:02:08.920Z,46.90
2019-03-27T14:04:40.789Z,47.00
2019-03-27T14:07:12.164Z,47.10
2019-03-27T14:09:43.486Z,47.70
2019-03-27T14:12:15.166Z,47.90
2019-03-27T14:14:50.560Z,47.30
2019-03-27T14:17:19.970Z,48.00
2019-03-27T14:19:52.493Z,48.30
2019-03-27T14:22:24.170Z,48.00
2019-03-27T14:24:55.855Z,47.20
2019-03-27T14:27:27.294Z,47.90
2019-03-27T14:29:58.974Z,47.80
2019-03-27T14:32:30.539Z,47.80
2019-03-27T14:35:01.989Z,48.80
2019-03-27T14:37:33.543Z,49.30
2019-03-27T14:40:06.063Z,49.20
2019-03-27T14:42:37.622Z,48.80
2019-03-27T14:45:10.508Z,48.10
2019-03-27T14:47:42.067Z,48.40
2019-03-27T14:50:21.665Z,48.20
2019-03-27T14:52:53.467Z,46.90
2019-03-27T14:55:25.268Z,46.50
2019-03-27T14:57:57.548Z,45.90
2019-03-27T15:00:29.350Z,46.40
2019-03-27T15:03:01.157Z,46.30
2019-03-27T15:05:32.480Z,46.50
2019-03-27T15:08:04.551Z,46.80
2019-03-27T15:10:36.435Z,45.90
2019-03-27T15:13:09.559Z,46.40
2019-03-27T15:15:41.358Z,45.70
2019-03-27T15:18:14.120Z,45.90
2019-03-27T15:20:45.681Z,44.80
2019-03-27T15:23:17.009Z,46.20
2019-03-27T15:25:50.127Z,46.40
2019-03-27T15:28:21.325Z,46.60
2019-03-27T15:30:53.008Z,45.70
2019-03-27T15:33:24.564Z,45.90
2019-03-27T15:35:56.856Z,45.60
2019-03-27T15:38:28.168Z,45.60
2019-03-27T15:40:59.618Z,46.30
2019-03-27T15:43:31.412Z,45.90
2019-03-27T15:46:03.821Z,45.00
2019-03-27T15:48:35.253Z,44.90
2019-03-27T15:51:07.895Z,45.70
2019-03-27T15:53:39.336Z,45.90
2019-03-27T15:56:12.459Z,46.80
2019-03-27T15:58:46.662Z,46.40
2019-03-27T16:01:18.704Z,47.00
2019-03-27T16:03:50.022Z,47.00
2019-03-27T16:06:21.589Z,46.50
2019-03-27T16:08:53.384Z,46.20
2019-03-27T16:11:25.073Z,47.50
2019-03-27T16:13:56.745Z,48.00
2019-03-27T16:16:28.069Z,47.00
2019-03-27T16:19:00.111Z,46.70
2019-03-27T16:21:31.433Z,47.10
2019-03-27T16:24:06.532Z,47.90
2019-03-27T16:26:35.753Z,47.00
2019-03-27T16:29:07.436Z,47.00
2019-03-27T16:31:39.115Z,47.30
2019-03-27T16:34:10.555Z,46.90
2019-03-27T16:36:41.636Z,46.50
2019-03-27T16:39:13.448Z,47.50
2019-03-27T16:41:44.879Z,48.00
2019-03-27T16:44:16.323Z,48.00
2019-03-27T16:46:48.003Z,46.90
2019-03-27T16:49:19.691Z,46.20
2019-03-27T16:51:51.248Z,47.50
2019-03-27T16:54:22.565Z,47.00
2019-03-27T16:56:53.888Z,46.40
2019-03-27T16:59:25.329Z,46.10
2019-03-27T17:01:58.934Z,46.40
2019-03-27T17:04:30.374Z,46.40
2019-03-27T17:07:02.415Z,46.80
2019-03-27T17:09:34.098Z,47.80
2019-03-27T17:12:05.424Z,47.60
2019-03-27T17:14:37.097Z,48.10
2019-03-27T17:17:09.021Z,48.30
2019-03-27T17:19:41.659Z,48.00
2019-03-27T17:22:19.617Z,47.50
2019-03-27T17:24:49.101Z,46.80
2019-03-27T17:27:20.541Z,47.30
2019-03-27T17:29:51.863Z,47.30
2019-03-27T17:32:23.423Z,46.90
2019-03-27T17:34:55.347Z,46.70
2019-03-27T17:37:27.149Z,48.00
2019-03-27T17:39:58.954Z,47.40
2019-03-27T17:42:30.519Z,47.80
2019-03-27T17:45:01.832Z,47.70
2019-03-27T17:47:34.232Z,47.80
2019-03-27T17:52:46.118Z,47.00
2019-03-27T17:55:18.035Z,47.80
2019-03-27T17:57:50.442Z,47.80
2019-03-27T18:00:40.244Z,47.30
2019-03-27T18:03:12.649Z,46.90
2019-03-27T18:05:44.801Z,47.30
2019-03-27T18:08:16.484Z,47.60
2019-03-27T18:10:48.165Z,47.30
2019-03-27T18:13:20.085Z,47.20
2019-03-27T18:15:51.411Z,47.50
2019-03-27T18:18:23.575Z,47.90
2019-03-27T18:20:55.736Z,47.80
2019-03-27T18:23:27.170Z,47.90
2019-03-27T18:25:58.492Z,47.40
2019-03-27T18:28:30.055Z,47.10
2019-03-27T18:31:01.495Z,47.50
2019-03-27T18:33:34.286Z,48.00
2019-03-27T18:36:05.935Z,48.30
2019-03-27T18:38:38.577Z,48.20
2019-03-27T18:41:10.021Z,48.10
2019-03-27T18:43:42.064Z,47.40
2019-03-27T18:46:14.944Z,48.10
2019-03-27T18:48:49.504Z,48.80
2019-03-27T18:51:20.828Z,48.80
2019-03-27T18:53:59.592Z,48.80
2019-03-27T18:56:26.351Z,48.80
2019-03-27T18:58:57.790Z,48.80
2019-03-27T19:01:29.976Z,48.40
2019-03-27T19:04:01.872Z,48.80
2019-03-27T19:06:33.674Z,48.50
2019-03-27T19:09:08.112Z,48.30
2019-03-27T19:11:41.357Z,48.00
2019-03-27T19:14:13.160Z,48.10
2019-03-27T19:16:45.078Z,47.90
2019-03-27T19:19:16.880Z,48.20
2019-03-27T19:21:48.557Z,48.60
2019-03-27T19:24:20.365Z,49.10
2019-03-27T19:26:53.241Z,49.10
2019-03-27T19:29:24.568Z,48.90
2019-03-27T19:31:56.485Z,49.20
2019-03-27T19:34:28.286Z,49.50
2019-03-27T19:36:59.852Z,49.40
2019-03-27T19:39:31.650Z,48.60
2019-03-27T19:42:03.697Z,49.20
2019-03-27T19:44:35.495Z,48.30
2019-03-27T19:47:07.296Z,48.60
2019-03-27T19:49:39.098Z,48.70
2019-03-27T19:52:10.898Z,49.20
2019-03-27T19:54:42.579Z,48.70
2019-03-27T19:57:14.136Z,49.00
2019-03-27T19:59:45.458Z,48.80
2019-03-27T20:02:16.900Z,49.00
2019-03-27T20:04:48.822Z,49.10
2019-03-27T20:07:20.620Z,49.80
2019-03-27T20:09:52.067Z,49.70
2019-03-27T20:12:23.866Z,49.90
2019-03-27T20:14:55.428Z,50.00
2019-03-27T20:17:26.986Z,50.00
2019-03-27T20:19:58.668Z,50.20
2019-03-27T20:22:30.481Z,50.30
2019-03-27T20:25:02.403Z,50.50
2019-03-27T20:27:34.792Z,50.40
2019-03-27T20:30:09.478Z,50.60
2019-03-27T20:32:41.156Z,50.30
2019-03-27T20:35:18.600Z,50.30
2019-03-27T20:37:50.520Z,50.20
2019-03-27T20:40:22.678Z,50.30
2019-03-27T20:42:54.482Z,50.00
2019-03-27T20:45:26.293Z,50.00
2019-03-27T20:48:00.483Z,50.00
2019-03-27T20:50:32.405Z,49.40
2019-03-27T20:53:04.327Z,49.60
2019-03-27T20:55:36.605Z,49.40
2019-03-27T20:58:08.012Z,49.80
2019-03-27T21:00:41.050Z,49.90
2019-03-27T21:03:12.613Z,50.00
2019-03-27T21:05:43.938Z,49.30
2019-03-27T21:08:17.063Z,49.40
2019-03-27T21:10:49.098Z,49.50
2019-03-27T21:13:20.657Z,49.60
2019-03-27T21:15:52.334Z,49.40
2019-03-27T21:18:24.143Z,49.20
2019-03-27T21:20:55.821Z,49.60
2019-03-27T21:23:27.382Z,49.90
2019-03-27T21:25:59.304Z,49.10
2019-03-27T21:28:30.622Z,49.10
2019-03-27T21:31:02.194Z,49.30
2019-03-27T21:33:33.744Z,49.40
2019-03-27T21:36:05.312Z,49.50
2019-03-27T21:38:37.106Z,49.60
2019-03-27T21:41:08.921Z,49.70
2019-03-27T21:43:40.241Z,49.00
2019-03-27T21:46:12.871Z,49.40
2019-03-27T21:48:45.633Z,49.80
2019-03-27T21:51:17.437Z,48.80
2019-03-27T21:53:50.804Z,49.20
2019-03-27T21:56:22.359Z,49.60
2019-03-27T22:02:11.564Z,49.50
2019-03-27T22:04:43.360Z,49.40
2019-03-27T22:07:14.922Z,49.00
2019-03-27T22:09:46.606Z,49.50
2019-03-27T22:12:19.010Z,49.70
2019-03-27T22:14:50.806Z,49.60
2019-03-27T22:17:22.369Z,50.10
2019-03-27T22:19:53.809Z,49.50
2019-03-27T22:22:25.013Z,49.50
2019-03-27T22:24:56.334Z,49.30
2019-03-27T22:27:27.892Z,49.20
2019-03-27T22:29:59.573Z,49.50
2019-03-27T22:32:31.253Z,49.60
2019-03-27T22:35:02.697Z,50.20
2019-03-27T22:37:34.381Z,50.30
2019-03-27T22:40:06.421Z,50.40
2019-03-27T22:42:37.859Z,50.70
2019-03-27T22:45:10.380Z,50.70
2019-03-27T22:47:41.585Z,50.80
2019-03-27T22:50:19.267Z,50.60
2019-03-27T22:52:50.585Z,50.80
2019-03-27T22:55:22.385Z,50.70
2019-03-27T22:57:54.308Z,50.80
2019-03-27T23:00:35.467Z,51.00
2019-03-27T23:03:18.060Z,50.80
2019-03-27T23:05:41.954Z,51.20
2019-03-27T23:08:13.514Z,50.90
2019-03-27T23:10:45.555Z,50.90
2019-03-27T23:13:18.802Z,51.00
2019-03-27T23:15:50.595Z,50.40
2019-03-27T23:18:22.639Z,51.10
2019-03-27T23:20:53.959Z,50.80
2019-03-27T23:23:25.883Z,50.20
2019-03-27T23:26:03.010Z,50.50
2019-03-27T23:28:30.321Z,50.50
2019-03-27T23:31:01.646Z,50.40
2019-03-27T23:33:33.328Z,49.90
2019-03-27T23:36:04.645Z,49.70
2019-03-27T23:38:37.888Z,50.30
2019-03-27T23:41:09.327Z,50.40
2019-03-27T23:43:40.889Z,51.10
2019-03-27T23:46:12.329Z,51.00
2019-03-27T23:48:43.651Z,51.00
2019-03-27T23:51:15.213Z,50.30
2019-03-27T23:53:46.415Z,50.40
2019-03-27T23:56:18.095Z,50.40
2019-03-27T23:58:50.741Z,50.10
